Brenes, Spain
Current Conditions -  °F | °C
As of 1:30 PM on Friday 24 Oct 2014 (Local Time) from LEZL Reporting Station
Clear Clear  
Wind Chill: 81°   Ceiling: Unl
Heat Index: 81°   Visibility: 6mi
Dew Point: 45°   Wind: 15mph
Humidity: 28%   Direction: 60°ENE
Pressure: 30"   Gusts: 26mph
Location:  37.55°N, 5.87°W
Report Text: LEZL 241130Z 06013G23KT CAVOK 27/07 Q1016 NOSIG
Loading
Personal Weather Stations






























Interactive Weather Map New forecast layout! Learn more

10-Day Weather Forecast

Advertisements
Track Severe Weather on mobile